Flight Track Log - Related Links

Times and Time Zones

All times are in EDT time to prevent confusion due to time zone crossing. See the N438SR flight status page for this flight to view local times or setup timezone preferences in your user account.


Time Position Orientation Groundspeed Altitude Reporting Facility
EDT Latitude Longitude Course Direction KTS MPH feet Rate Location/Type
Mon 11:29:35 AM 30.7817 -83.2747 256° West 88 101 600  Level Jacksonville Center
Mon 11:30:53 AM 30.7775 -83.2939 256° West 113 130 1,600 734 Climbing Jacksonville Center
Mon 11:31:54 AM 30.7461 -83.2842 165° South 118 136 2,300 689 Climbing Jacksonville Center
Mon 11:32:55 AM 30.7106 -83.2767 170° South 124 143 3,000 556 Climbing Jacksonville Center
Mon 11:33:42 AM 30.6856 -83.2694 166° South 147 169 3,300 449 Climbing Jacksonville Center
Mon 11:34:42 AM 30.6439 -83.2594 168° South 152 175 3,800 500 Climbing Jacksonville Center
Mon 11:35:42 AM 30.6022 -83.2522 172° South 152 175 4,300 550 Climbing Jacksonville Center
Mon 11:36:42 AM 30.5606 -83.2422 168° South 152 175 4,900 550 Climbing Jacksonville Center
Mon 11:37:42 AM 30.5186 -83.2350 172° South 152 175 5,400 450 Climbing Jacksonville Center
Mon 11:38:42 AM 30.4792 -83.2253 168° South 152 175 5,800 450 Climbing Jacksonville Center
Mon 11:39:42 AM 30.4353 -83.2178 172° South 157 181 6,300 450 Climbing Jacksonville Center
Mon 11:40:42 AM 30.3914 -83.2106 172° South 162 186 6,700 450 Climbing Jacksonville Center
Mon 11:41:42 AM 30.3475 -83.2006 169° South 162 186 7,200 500 Climbing Jacksonville Center
Mon 11:42:42 AM 30.3039 -83.1908 169° South 162 186 7,700 450 Climbing Jacksonville Center
Mon 11:43:42 AM 30.2600 -83.1836 172° South 162 186 8,100 450 Climbing Jacksonville Center
Mon 11:44:42 AM 30.2139 -83.1739 170° South 162 186 8,600 450 Climbing Jacksonville Center
Mon 11:45:42 AM 30.1681 -83.1642 170° South 162 186 9,000 250 Climbing Jacksonville Center
Mon 11:46:42 AM 30.1222 -83.1544 170° South 162 186 9,100 50 Climbing Jacksonville Center
Mon 11:47:42 AM 30.0722 -83.1447 170° South 167 192 9,100  Level Jacksonville Center
Mon 11:48:42 AM 30.0158 -83.1350 172° South 186 214 9,100  Level Jacksonville Center
Mon 11:49:42 AM 29.9636 -83.1228 169° South 186 214 9,100 50 Level Jacksonville Center
Mon 11:50:42 AM 29.9178 -83.1156 172° South 180 207 9,200 50 Climbing Jacksonville Center
Mon 11:51:42 AM 29.8656 -83.1008 166° South 192 221 9,200 -50 Level Jacksonville Center
Mon 11:52:42 AM 29.8194 -83.0961 175° South 187 215 9,100 -50 Descending Jacksonville Center
Mon 11:53:42 AM 29.7717 -83.0864 170° South 180 207 9,100 50 Level Jacksonville Center
Mon 11:54:42 AM 29.7194 -83.0744 169° South 180 207 9,200  Climbing Jacksonville Center
Mon 11:55:40 AM 29.6692 -83.0669 173° South 178 205 9,100 -64 Descending Jacksonville Center
Mon 11:56:16 AM 29.6422 -83.0575 163° South 177 204 9,100  Level Jacksonville Center
Mon 11:57:17 AM 29.5919 -83.0503 173° South 179 206 9,100  Level Jacksonville Center
Mon 11:58:18 AM 29.5483 -83.0214 150° Southeast 189 217 9,100 49 Level Jacksonville Center
Mon 11:59:19 AM 29.5067 -82.9903 147° Southeast 180 207 9,200 49 Climbing Jacksonville Center
Mon 12:00:20 PM 29.4586 -82.9594 151° Southeast 182 209 9,200 -49 Level Jacksonville Center
Mon 12:01:22 PM 29.4147 -82.9331 152° Southeast 178 205 9,100  Descending Jacksonville Center
Mon 12:02:22 PM 29.3731 -82.9022 147° Southeast 180 207 9,200 50 Climbing Jacksonville Center
Mon 12:03:23 PM 29.3292 -82.8758 152° Southeast 179 206 9,200 -49 Level Jacksonville Center
Mon 12:04:24 PM 29.2811 -82.8472 153° Southeast 180 207 9,100  Descending Jacksonville Center
Mon 12:05:25 PM 29.2394 -82.8164 147° Southeast 179 206 9,200 49 Climbing Jacksonville Center
Mon 12:06:26 PM 29.1933 -82.7878 152° Southeast 180 207 9,200  Level Jacksonville Center
Mon 12:07:27 PM 29.1494 -82.7617 153° Southeast 181 208 9,200  Level Jacksonville Center
Mon 12:08:28 PM 29.1036 -82.7308 150° Southeast 181 208 9,200  Level Jacksonville Center
Mon 12:09:30 PM 29.0597 -82.7003 149° Southeast 180 207 9,200  Level Jacksonville Center
Mon 12:10:31 PM 29.0181 -82.6742 151° Southeast 181 208 9,200  Level Jacksonville Center
Mon 12:11:32 PM 28.9742 -82.6481 153° Southeast 179 206 9,200  Level Jacksonville Center
Mon 12:12:33 PM 28.9281 -82.6150 148° Southeast 179 206 9,200 -49 Level Jacksonville Center
Mon 12:13:34 PM 28.8819 -82.5867 152° Southeast 183 211 9,100 -98 Descending Jacksonville Center
Mon 12:14:35 PM 28.8403 -82.5608 151° Southeast 177 204 9,000 -49 Descending Jacksonville Center
Mon 12:15:36 PM 28.7964 -82.5325 150° Southeast 180 207 9,000 68 Level Jacksonville Center
Mon 12:17:31 PM 28.7167 -82.4667 144° Southeast 180 207 9,200 69 Climbing Tampa TRACON
Mon 12:18:31 PM 28.6667 -82.4500 164° South 180 207 9,200  Level Tampa TRACON
Mon 12:19:32 PM 28.6167 -82.4167 150° Southeast 179 206 9,200 -47 Level Tampa TRACON
Mon 12:20:38 PM 28.5833 -82.3833 139° Southeast 177 204 9,100 -50 Descending Tampa TRACON
Mon 12:21:32 PM 28.5333 -82.3667 164° South 180 207 9,100 50 Level Tampa TRACON
Mon 12:22:38 PM 28.4833 -82.3333 150° Southeast 178 205 9,200 56 Climbing Tampa TRACON
Mon 12:23:20 PM 28.4667 -82.3167 139° Southeast 179 206 9,200  Level Tampa TRACON
Mon 12:24:26 PM 28.4167 -82.2833 150° Southeast 179 206 9,200  Level Tampa TRACON
Mon 12:25:26 PM 28.3667 -82.2667 164° South 178 205 9,200  Level Tampa TRACON
Mon 12:26:26 PM 28.3333 -82.2333 139° Southeast 178 205 9,200  Level Tampa TRACON
Mon 12:27:26 PM 28.2833 -82.2000 150° Southeast 177 204 9,200  Level Tampa TRACON
Mon 12:28:26 PM 28.2333 -82.1833 164° South 178 205 9,200  Level Tampa TRACON
Mon 12:29:26 PM 28.2000 -82.1500 139° Southeast 180 207 9,200  Level Tampa TRACON
Mon 12:30:26 PM 28.1500 -82.1167 150° Southeast 179 206 9,200 -32 Level Tampa TRACON
Mon 12:32:36 PM 28.0564 -82.0583 151° Southeast 158 182 9,100  Descending Miami Center
Mon 12:33:36 PM 28.0133 -82.0328 152° Southeast 171 197 9,200 50 Climbing Miami Center
Mon 12:34:36 PM 27.9686 -82.0047 151° Southeast 177 204 9,200  Level Miami Center
Mon 12:35:36 PM 27.9214 -81.9792 154° Southeast 177 204 9,200  Level Miami Center
Mon 12:36:36 PM 27.8742 -81.9561 157° South 177 204 9,200  Level Miami Center
Mon 12:37:36 PM 27.8314 -81.9306 152° Southeast 177 204 9,200  Level Miami Center
Mon 12:38:36 PM 27.7883 -81.9075 155° Southeast 182 209 9,200  Level Miami Center
Mon 12:39:36 PM 27.7372 -81.8794 154° Southeast 187 215 9,200  Level Miami Center
Mon 12:40:36 PM 27.6922 -81.8542 154° Southeast 187 215 9,200  Level Miami Center
Mon 12:41:36 PM 27.6450 -81.8308 156° South 192 221 9,200  Level Miami Center
Mon 12:42:36 PM 27.6039 -81.8106 156° South 187 215 9,200  Level Miami Center
Mon 12:43:36 PM 27.5547 -81.7803 151° Southeast 182 209 9,200  Level Miami Center
Mon 12:44:36 PM 27.5117 -81.7597 157° South 182 209 9,200  Level Miami Center
Mon 12:45:35 PM 27.4769 -81.7417 155° Southeast 182 209 9,200  Level Miami Center
Mon 12:46:36 PM 27.4214 -81.7114 154° Southeast 182 209 9,200  Level Miami Center
Mon 12:47:36 PM 27.3764 -81.6861 153° Southeast 187 215 9,200  Level Miami Center
Mon 12:48:36 PM 27.3292 -81.6631 157° South 187 215 9,200  Level Miami Center
Mon 12:49:36 PM 27.2822 -81.6353 152° Southeast 187 215 9,200  Level Miami Center
Mon 12:50:36 PM 27.2369 -81.6125 156° South 187 215 9,200  Level Miami Center
Mon 12:51:36 PM 27.1897 -81.5872 155° Southeast 187 215 9,200  Level Miami Center
Mon 12:52:36 PM 27.1447 -81.5619 153° Southeast 187 215 9,200  Level Miami Center
Mon 12:53:36 PM 27.0994 -81.5369 154° Southeast 187 215 9,200  Level Miami Center
Mon 12:54:36 PM 27.0522 -81.5142 157° South 187 215 9,200  Level Miami Center
Mon 12:55:36 PM 27.0053 -81.4864 152° Southeast 187 215 9,200  Level Miami Center
Mon 12:56:36 PM 26.9642 -81.4661 156° South 182 209 9,200  Level Miami Center
Mon 12:57:36 PM 26.9167 -81.4433 157° South 182 209 9,200  Level Miami Center
Mon 12:58:36 PM 26.8736 -81.4183 153° Southeast 182 209 9,200  Level Miami Center
Mon 12:59:36 PM 26.8286 -81.3933 154° Southeast 182 209 9,200 -19 Level Miami Center
Mon 01:01:00 PM 26.7688 -81.3610 157° South  Level FlightAware Approximate
Mon 01:04:00 PM 26.6144 -81.2969 157° South 181 208 9,100  Level Miami Center
Mon 01:05:00 PM 26.5692 -81.2742 156° South 181 208 9,100 -50 Level Miami Center
Mon 01:06:00 PM 26.5239 -81.2539 158° South 176 203 9,000  Descending Miami Center
Mon 01:07:00 PM 26.4806 -81.2361 160° South 184 212 9,100 50 Climbing Miami Center
Mon 01:08:00 PM 26.4625 -81.2188 157° South  Level FlightAware Approximate
Mon 01:08:00 PM 26.4392 -81.2183 159° South 184 212 9,100  Level Miami Center
Mon 01:09:00 PM 26.3939 -81.1981 158° South 184 212 9,100  Level Miami Center
Mon 01:10:00 PM 26.3467 -81.1756 157° South 184 212 9,100 -100 Level Miami Center
Mon 01:11:00 PM 26.3014 -81.1553 158° South 184 212 8,900 -300 Descending Miami Center
Mon 01:12:00 PM 26.2497 -81.1328 159° South 195 224 8,500 -509 Descending Miami Center
Mon 01:12:46 PM 26.2022 -81.1169 163° South 196 226 8,000 -500 Descending Miami Center
Mon 01:13:48 PM 26.1547 -81.0922 155° Southeast 192 221 7,600 -462 Descending Miami Center
Mon 01:14:43 PM 26.1072 -81.0767 164° South 190 219 7,100 -500 Descending Miami Center
Mon 01:16:00 PM 26.0497 -81.0447 153° Southeast 190 219 6,500 -443 Descending Miami Center
Mon 01:16:45 PM 26.0125 -81.0317 163° South 188 216 6,200 -450 Descending Miami Center
Mon 01:18:00 PM 25.9506 -81.0019 157° South 190 219 5,600 -444 Descending Miami Center
Mon 01:19:00 PM 25.9097 -80.9706 145° Southeast 190 219 5,200 -474 Descending Miami Center
Mon 01:19:54 PM 25.8689 -80.9414 147° Southeast 180 207 4,700 -600 Descending Miami Center
Mon 01:20:50 PM 25.8322 -80.9056 139° Southeast 179 206 4,100 -619 Descending Miami Center
Mon 01:22:00 PM 25.7958 -80.8628 133° Southeast 180 207 3,400 -703 Descending Miami Center
Mon 01:22:58 PM 25.7678 -80.8203 126° Southeast 182 209 2,600 -650 Descending Miami Center
Mon 01:24:00 PM 25.7314 -80.7731 131° Southeast 179 206 2,100 -308 Descending Miami Center
Mon 01:24:55 PM 25.7053 -80.7375 129° Southeast 161 185 2,000  Descending Miami Center
Mon 01:25:56 PM 25.6811 -80.6975 124° Southeast 159 183 2,100  Climbing Miami Center
Mon 01:26:57 PM 25.6550 -80.6553 124° Southeast 163 188 2,000 49 Descending Miami Center
Mon 01:27:58 PM 25.6414 -80.6156 111° Southeast 158 182 2,200 -244 Climbing Miami Center
Mon 01:29:00 PM 25.6450 -80.5650 85° East 157 181 1,500 -457 Descending Miami Center
Mon 01:30:00 PM 25.6710 -80.5215 56° Northeast  Level FlightAware Approximate
Mon 01:31:02 PM 25.6486 -80.4961 56° Northeast 108 124 800  Level Miami Center
Mon 01:32:04 PM 25.6472 -80.4683 93° East 80 92 500 -290 Descending Miami Center
Mon 01:34:00 PM 25.6476 -80.4332 42° Northeast  Level Estimated

Login

Don't have an account? Register now (free) for customized features, flight alerts, and more!